sensor_id;sensor_type;location;lat;lon;timestamp;P1;durP1;ratioP1;P2;durP2;ratioP2
21955;SDS011;11142;49.930;8.606;2024-03-22T00:00:03;29.33;;;13.55;;
21955;SDS011;11142;49.930;8.606;2024-03-22T00:02:52;25.60;;;13.07;;
21955;SDS011;11142;49.930;8.606;2024-03-22T00:05:18;29.50;;;14.50;;
21955;SDS011;11142;49.930;8.606;2024-03-22T00:07:47;33.40;;;15.07;;
21955;SDS011;11142;49.930;8.606;2024-03-22T00:10:14;31.05;;;13.98;;
21955;SDS011;11142;49.930;8.606;2024-03-22T00:12:41;32.70;;;14.32;;
21955;SDS011;11142;49.930;8.606;2024-03-22T00:15:07;29.45;;;13.98;;
21955;SDS011;11142;49.930;8.606;2024-03-22T00:17:42;29.35;;;13.73;;
21955;SDS011;11142;49.930;8.606;2024-03-22T00:20:10;33.70;;;14.30;;
21955;SDS011;11142;49.930;8.606;2024-03-22T00:22:37;31.65;;;14.73;;
21955;SDS011;11142;49.930;8.606;2024-03-22T00:25:04;35.22;;;14.95;;
21955;SDS011;11142;49.930;8.606;2024-03-22T00:27:33;32.78;;;15.38;;
21955;SDS011;11142;49.930;8.606;2024-03-22T00:29:59;30.15;;;14.98;;
21955;SDS011;11142;49.930;8.606;2024-03-22T00:32:28;31.10;;;14.13;;
21955;SDS011;11142;49.930;8.606;2024-03-22T00:34:54;26.83;;;13.07;;
21955;SDS011;11142;49.930;8.606;2024-03-22T00:37:23;29.23;;;14.10;;
21955;SDS011;11142;49.930;8.606;2024-03-22T00:39:49;28.02;;;13.18;;
21955;SDS011;11142;49.930;8.606;2024-03-22T00:42:16;31.65;;;13.75;;
21955;SDS011;11142;49.930;8.606;2024-03-22T00:44:43;27.95;;;13.38;;
21955;SDS011;11142;49.930;8.606;2024-03-22T00:47:10;25.50;;;12.82;;
21955;SDS011;11142;49.930;8.606;2024-03-22T00:49:36;31.17;;;13.88;;
21955;SDS011;11142;49.930;8.606;2024-03-22T00:52:03;29.50;;;13.88;;
21955;SDS011;11142;49.930;8.606;2024-03-22T00:54:31;28.70;;;13.32;;
21955;SDS011;11142;49.930;8.606;2024-03-22T00:56:58;29.70;;;13.85;;
21955;SDS011;11142;49.930;8.606;2024-03-22T00:59:24;29.33;;;13.02;;
21955;SDS011;11142;49.930;8.606;2024-03-22T01:01:51;28.45;;;12.90;;
21955;SDS011;11142;49.930;8.606;2024-03-22T01:04:17;26.52;;;12.27;;
21955;SDS011;11142;49.930;8.606;2024-03-22T01:06:47;25.33;;;12.35;;
21955;SDS011;11142;49.930;8.606;2024-03-22T01:09:14;27.65;;;12.70;;
21955;SDS011;11142;49.930;8.606;2024-03-22T01:11:44;27.00;;;13.00;;
21955;SDS011;11142;49.930;8.606;2024-03-22T01:14:10;26.95;;;12.05;;
21955;SDS011;11142;49.930;8.606;2024-03-22T01:16:37;25.85;;;11.82;;
21955;SDS011;11142;49.930;8.606;2024-03-22T01:19:05;27.92;;;13.48;;
21955;SDS011;11142;49.930;8.606;2024-03-22T01:21:32;29.77;;;12.27;;
21955;SDS011;11142;49.930;8.606;2024-03-22T01:23:58;29.50;;;13.90;;
21955;SDS011;11142;49.930;8.606;2024-03-22T01:26:26;30.15;;;14.18;;
21955;SDS011;11142;49.930;8.606;2024-03-22T01:28:55;34.92;;;14.50;;
21955;SDS011;11142;49.930;8.606;2024-03-22T01:31:22;31.42;;;13.57;;
21955;SDS011;11142;49.930;8.606;2024-03-22T01:33:48;31.25;;;14.20;;
21955;SDS011;11142;49.930;8.606;2024-03-22T01:36:16;26.73;;;12.27;;
21955;SDS011;11142;49.930;8.606;2024-03-22T01:38:42;23.20;;;11.82;;
21955;SDS011;11142;49.930;8.606;2024-03-22T01:41:10;24.50;;;12.02;;
21955;SDS011;11142;49.930;8.606;2024-03-22T01:43:37;22.45;;;11.43;;
21955;SDS011;11142;49.930;8.606;2024-03-22T01:46:07;26.92;;;12.48;;
21955;SDS011;11142;49.930;8.606;2024-03-22T01:48:34;26.38;;;12.43;;
21955;SDS011;11142;49.930;8.606;2024-03-22T01:51:04;29.15;;;12.15;;
21955;SDS011;11142;49.930;8.606;2024-03-22T01:53:32;24.88;;;12.85;;
21955;SDS011;11142;49.930;8.606;2024-03-22T01:56:02;27.77;;;13.23;;
21955;SDS011;11142;49.930;8.606;2024-03-22T01:58:29;25.02;;;12.60;;
21955;SDS011;11142;49.930;8.606;2024-03-22T02:00:56;22.73;;;11.85;;
21955;SDS011;11142;49.930;8.606;2024-03-22T02:03:24;25.42;;;12.75;;
21955;SDS011;11142;49.930;8.606;2024-03-22T02:05:51;29.95;;;12.45;;
21955;SDS011;11142;49.930;8.606;2024-03-22T02:08:18;27.95;;;12.48;;
21955;SDS011;11142;49.930;8.606;2024-03-22T02:10:45;25.50;;;11.95;;
21955;SDS011;11142;49.930;8.606;2024-03-22T02:13:12;29.17;;;13.38;;
21955;SDS011;11142;49.930;8.606;2024-03-22T02:15:39;26.98;;;11.95;;
21955;SDS011;11142;49.930;8.606;2024-03-22T02:18:05;27.02;;;12.02;;
21955;SDS011;11142;49.930;8.606;2024-03-22T02:20:33;24.50;;;12.25;;
21955;SDS011;11142;49.930;8.606;2024-03-22T02:23:01;28.73;;;12.00;;
21955;SDS011;11142;49.930;8.606;2024-03-22T02:25:29;28.63;;;13.40;;
21955;SDS011;11142;49.930;8.606;2024-03-22T02:27:55;40.05;;;15.38;;
21955;SDS011;11142;49.930;8.606;2024-03-22T02:30:22;33.08;;;14.80;;
21955;SDS011;11142;49.930;8.606;2024-03-22T02:32:48;29.67;;;13.68;;
21955;SDS011;11142;49.930;8.606;2024-03-22T02:35:15;27.55;;;13.23;;
21955;SDS011;11142;49.930;8.606;2024-03-22T02:37:42;27.42;;;12.63;;
21955;SDS011;11142;49.930;8.606;2024-03-22T02:40:10;36.42;;;14.60;;
21955;SDS011;11142;49.930;8.606;2024-03-22T02:42:38;30.10;;;13.45;;
21955;SDS011;11142;49.930;8.606;2024-03-22T02:45:05;34.42;;;14.57;;
21955;SDS011;11142;49.930;8.606;2024-03-22T02:47:32;29.40;;;13.43;;
21955;SDS011;11142;49.930;8.606;2024-03-22T02:49:58;30.58;;;15.18;;
21955;SDS011;11142;49.930;8.606;2024-03-22T02:52:24;32.42;;;14.75;;
21955;SDS011;11142;49.930;8.606;2024-03-22T02:54:52;28.40;;;12.98;;
21955;SDS011;11142;49.930;8.606;2024-03-22T02:57:18;25.77;;;12.88;;
21955;SDS011;11142;49.930;8.606;2024-03-22T02:59:48;30.17;;;13.82;;
21955;SDS011;11142;49.930;8.606;2024-03-22T03:02:14;33.45;;;13.27;;
21955;SDS011;11142;49.930;8.606;2024-03-22T03:04:41;32.15;;;13.27;;
21955;SDS011;11142;49.930;8.606;2024-03-22T03:07:07;30.77;;;13.38;;
21955;SDS011;11142;49.930;8.606;2024-03-22T03:09:35;28.70;;;13.60;;
21955;SDS011;11142;49.930;8.606;2024-03-22T03:12:01;29.90;;;13.82;;
21955;SDS011;11142;49.930;8.606;2024-03-22T03:14:28;29.20;;;12.93;;
21955;SDS011;11142;49.930;8.606;2024-03-22T03:16:56;26.58;;;12.40;;
21955;SDS011;11142;49.930;8.606;2024-03-22T03:19:23;35.83;;;14.32;;
21955;SDS011;11142;49.930;8.606;2024-03-22T03:21:50;25.25;;;11.68;;
21955;SDS011;11142;49.930;8.606;2024-03-22T03:24:18;31.35;;;13.82;;
21955;SDS011;11142;49.930;8.606;2024-03-22T03:26:45;30.85;;;12.90;;
21955;SDS011;11142;49.930;8.606;2024-03-22T03:29:11;27.08;;;13.18;;
21955;SDS011;11142;49.930;8.606;2024-03-22T03:31:38;30.83;;;13.73;;
21955;SDS011;11142;49.930;8.606;2024-03-22T03:34:07;28.20;;;13.80;;
21955;SDS011;11142;49.930;8.606;2024-03-22T03:36:34;26.80;;;13.93;;
21955;SDS011;11142;49.930;8.606;2024-03-22T03:39:00;29.45;;;13.98;;
21955;SDS011;11142;49.930;8.606;2024-03-22T03:41:28;30.50;;;13.60;;
21955;SDS011;11142;49.930;8.606;2024-03-22T03:43:55;26.48;;;12.63;;
21955;SDS011;11142;49.930;8.606;2024-03-22T03:46:22;33.67;;;13.98;;
21955;SDS011;11142;49.930;8.606;2024-03-22T03:48:48;32.97;;;14.25;;
21955;SDS011;11142;49.930;8.606;2024-03-22T03:51:18;31.67;;;14.10;;
21955;SDS011;11142;49.930;8.606;2024-03-22T03:53:44;30.65;;;14.13;;
21955;SDS011;11142;49.930;8.606;2024-03-22T03:56:12;29.80;;;14.05;;
21955;SDS011;11142;49.930;8.606;2024-03-22T03:58:38;31.35;;;14.25;;
21955;SDS011;11142;49.930;8.606;2024-03-22T04:01:05;29.17;;;13.35;;
21955;SDS011;11142;49.930;8.606;2024-03-22T04:03:31;30.25;;;13.43;;
21955;SDS011;11142;49.930;8.606;2024-03-22T04:05:59;28.23;;;12.95;;
21955;SDS011;11142;49.930;8.606;2024-03-22T04:08:27;28.50;;;12.52;;
21955;SDS011;11142;49.930;8.606;2024-03-22T04:10:57;30.98;;;14.07;;
21955;SDS011;11142;49.930;8.606;2024-03-22T04:13:24;29.00;;;14.13;;
21955;SDS011;11142;49.930;8.606;2024-03-22T04:15:52;30.88;;;13.27;;
21955;SDS011;11142;49.930;8.606;2024-03-22T04:18:18;34.97;;;13.95;;
21955;SDS011;11142;49.930;8.606;2024-03-22T04:20:53;28.10;;;12.80;;
21955;SDS011;11142;49.930;8.606;2024-03-22T04:25:52;26.60;;;12.38;;
21955;SDS011;11142;49.930;8.606;2024-03-22T04:30:53;32.08;;;13.23;;
21955;SDS011;11142;49.930;8.606;2024-03-22T04:33:20;29.65;;;13.48;;
21955;SDS011;11142;49.930;8.606;2024-03-22T04:35:47;29.25;;;12.93;;
21955;SDS011;11142;49.930;8.606;2024-03-22T04:38:15;27.23;;;12.77;;
21955;SDS011;11142;49.930;8.606;2024-03-22T04:40:42;30.13;;;13.32;;
21955;SDS011;11142;49.930;8.606;2024-03-22T04:43:13;36.38;;;13.32;;
21955;SDS011;11142;49.930;8.606;2024-03-22T04:45:41;28.83;;;13.52;;
21955;SDS011;11142;49.930;8.606;2024-03-22T04:48:12;26.35;;;12.40;;
21955;SDS011;11142;49.930;8.606;2024-03-22T04:50:38;28.63;;;12.95;;
21955;SDS011;11142;49.930;8.606;2024-03-22T04:53:05;26.55;;;12.43;;
21955;SDS011;11142;49.930;8.606;2024-03-22T04:55:32;27.10;;;12.02;;
21955;SDS011;11142;49.930;8.606;2024-03-22T04:58:00;24.85;;;12.40;;
21955;SDS011;11142;49.930;8.606;2024-03-22T05:00:28;26.50;;;13.00;;
21955;SDS011;11142;49.930;8.606;2024-03-22T05:02:55;27.10;;;12.35;;
21955;SDS011;11142;49.930;8.606;2024-03-22T05:05:21;28.92;;;12.82;;
21955;SDS011;11142;49.930;8.606;2024-03-22T05:07:49;28.92;;;11.93;;
21955;SDS011;11142;49.930;8.606;2024-03-22T05:10:16;33.38;;;13.25;;
21955;SDS011;11142;49.930;8.606;2024-03-22T05:12:43;25.55;;;12.82;;
21955;SDS011;11142;49.930;8.606;2024-03-22T05:15:09;28.15;;;12.65;;
21955;SDS011;11142;49.930;8.606;2024-03-22T05:17:38;28.17;;;13.00;;
21955;SDS011;11142;49.930;8.606;2024-03-22T05:20:05;26.42;;;11.15;;
21955;SDS011;11142;49.930;8.606;2024-03-22T05:22:36;19.83;;;11.68;;
21955;SDS011;11142;49.930;8.606;2024-03-22T05:25:03;23.00;;;10.88;;
21955;SDS011;11142;49.930;8.606;2024-03-22T05:27:30;28.40;;;11.90;;
21955;SDS011;11142;49.930;8.606;2024-03-22T05:29:56;28.25;;;13.32;;
21955;SDS011;11142;49.930;8.606;2024-03-22T05:32:25;25.27;;;12.15;;
21955;SDS011;11142;49.930;8.606;2024-03-22T05:34:54;29.90;;;11.98;;
21955;SDS011;11142;49.930;8.606;2024-03-22T05:37:22;27.27;;;12.20;;
21955;SDS011;11142;49.930;8.606;2024-03-22T05:39:48;26.05;;;12.15;;
21955;SDS011;11142;49.930;8.606;2024-03-22T05:42:18;25.85;;;12.45;;
21955;SDS011;11142;49.930;8.606;2024-03-22T05:44:46;28.05;;;11.23;;
21955;SDS011;11142;49.930;8.606;2024-03-22T05:47:14;27.10;;;12.50;;
21955;SDS011;11142;49.930;8.606;2024-03-22T05:49:40;27.25;;;11.98;;
21955;SDS011;11142;49.930;8.606;2024-03-22T05:52:09;25.67;;;11.20;;
21955;SDS011;11142;49.930;8.606;2024-03-22T05:54:35;21.65;;;11.75;;
21955;SDS011;11142;49.930;8.606;2024-03-22T05:57:03;23.05;;;11.95;;
21955;SDS011;11142;49.930;8.606;2024-03-22T05:59:30;23.15;;;11.30;;
21955;SDS011;11142;49.930;8.606;2024-03-22T06:01:57;21.60;;;10.98;;
21955;SDS011;11142;49.930;8.606;2024-03-22T06:04:24;25.73;;;12.10;;
21955;SDS011;11142;49.930;8.606;2024-03-22T06:06:53;29.77;;;12.00;;
21955;SDS011;11142;49.930;8.606;2024-03-22T06:09:20;25.77;;;12.50;;
21955;SDS011;11142;49.930;8.606;2024-03-22T06:12:01;22.92;;;10.55;;
21955;SDS011;11142;49.930;8.606;2024-03-22T06:14:28;26.38;;;11.25;;
21955;SDS011;11142;49.930;8.606;2024-03-22T06:16:55;18.35;;;10.30;;
21955;SDS011;11142;49.930;8.606;2024-03-22T06:19:23;21.23;;;10.73;;
21955;SDS011;11142;49.930;8.606;2024-03-22T06:21:50;22.15;;;10.63;;
21955;SDS011;11142;49.930;8.606;2024-03-22T06:24:18;21.63;;;11.35;;
21955;SDS011;11142;49.930;8.606;2024-03-22T06:26:47;22.45;;;11.10;;
21955;SDS011;11142;49.930;8.606;2024-03-22T06:29:15;16.48;;;9.95;;
21955;SDS011;11142;49.930;8.606;2024-03-22T06:31:43;23.00;;;11.00;;
21955;SDS011;11142;49.930;8.606;2024-03-22T06:34:10;21.27;;;10.60;;
21955;SDS011;11142;49.930;8.606;2024-03-22T06:36:37;28.00;;;11.45;;
21955;SDS011;11142;49.930;8.606;2024-03-22T06:39:03;19.95;;;9.95;;
21955;SDS011;11142;49.930;8.606;2024-03-22T06:41:37;22.05;;;10.55;;
21955;SDS011;11142;49.930;8.606;2024-03-22T06:44:04;18.27;;;9.52;;
21955;SDS011;11142;49.930;8.606;2024-03-22T06:46:31;21.40;;;9.90;;
21955;SDS011;11142;49.930;8.606;2024-03-22T06:48:57;20.80;;;9.85;;
21955;SDS011;11142;49.930;8.606;2024-03-22T06:51:26;23.27;;;9.70;;
21955;SDS011;11142;49.930;8.606;2024-03-22T06:53:52;18.23;;;9.73;;
21955;SDS011;11142;49.930;8.606;2024-03-22T06:56:19;18.52;;;9.52;;
21955;SDS011;11142;49.930;8.606;2024-03-22T06:58:48;17.35;;;8.98;;
21955;SDS011;11142;49.930;8.606;2024-03-22T07:01:18;15.80;;;8.93;;
21955;SDS011;11142;49.930;8.606;2024-03-22T07:03:46;16.65;;;8.93;;
21955;SDS011;11142;49.930;8.606;2024-03-22T07:06:14;16.48;;;8.50;;
21955;SDS011;11142;49.930;8.606;2024-03-22T07:08:41;15.43;;;9.00;;
21955;SDS011;11142;49.930;8.606;2024-03-22T07:11:08;17.13;;;9.27;;
21955;SDS011;11142;49.930;8.606;2024-03-22T07:13:34;14.05;;;8.68;;
21955;SDS011;11142;49.930;8.606;2024-03-22T07:16:03;15.10;;;8.70;;
21955;SDS011;11142;49.930;8.606;2024-03-22T07:18:30;18.02;;;8.55;;
21955;SDS011;11142;49.930;8.606;2024-03-22T07:20:57;19.88;;;8.85;;
21955;SDS011;11142;49.930;8.606;2024-03-22T07:23:26;15.95;;;8.30;;
21955;SDS011;11142;49.930;8.606;2024-03-22T07:25:54;14.23;;;7.93;;
21955;SDS011;11142;49.930;8.606;2024-03-22T07:28:21;17.60;;;8.55;;
21955;SDS011;11142;49.930;8.606;2024-03-22T07:30:48;13.07;;;7.95;;
21955;SDS011;11142;49.930;8.606;2024-03-22T07:33:15;14.90;;;8.02;;
21955;SDS011;11142;49.930;8.606;2024-03-22T07:35:43;15.45;;;8.63;;
21955;SDS011;11142;49.930;8.606;2024-03-22T07:38:09;17.73;;;8.48;;
21955;SDS011;11142;49.930;8.606;2024-03-22T07:40:36;16.55;;;9.10;;
21955;SDS011;11142;49.930;8.606;2024-03-22T07:43:04;13.68;;;8.73;;
21955;SDS011;11142;49.930;8.606;2024-03-22T07:45:32;17.50;;;9.20;;
21955;SDS011;11142;49.930;8.606;2024-03-22T07:48:00;16.48;;;9.18;;
21955;SDS011;11142;49.930;8.606;2024-03-22T07:50:28;15.38;;;8.68;;
21955;SDS011;11142;49.930;8.606;2024-03-22T07:52:55;16.50;;;9.35;;
21955;SDS011;11142;49.930;8.606;2024-03-22T07:55:27;18.30;;;9.07;;
21955;SDS011;11142;49.930;8.606;2024-03-22T07:57:53;19.67;;;9.57;;
21955;SDS011;11142;49.930;8.606;2024-03-22T08:00:22;17.42;;;8.77;;
21955;SDS011;11142;49.930;8.606;2024-03-22T08:02:51;18.38;;;8.75;;
21955;SDS011;11142;49.930;8.606;2024-03-22T08:05:18;14.35;;;7.95;;
21955;SDS011;11142;49.930;8.606;2024-03-22T08:07:46;16.88;;;8.45;;
21955;SDS011;11142;49.930;8.606;2024-03-22T08:10:13;15.23;;;8.48;;
21955;SDS011;11142;49.930;8.606;2024-03-22T08:12:42;16.08;;;8.80;;
21955;SDS011;11142;49.930;8.606;2024-03-22T08:15:13;14.23;;;8.85;;
21955;SDS011;11142;49.930;8.606;2024-03-22T08:17:40;14.68;;;8.82;;
21955;SDS011;11142;49.930;8.606;2024-03-22T08:20:07;19.55;;;9.13;;
21955;SDS011;11142;49.930;8.606;2024-03-22T08:22:35;16.30;;;8.57;;
21955;SDS011;11142;49.930;8.606;2024-03-22T08:25:03;16.38;;;8.68;;
21955;SDS011;11142;49.930;8.606;2024-03-22T08:27:33;20.88;;;9.85;;
21955;SDS011;11142;49.930;8.606;2024-03-22T08:30:00;17.48;;;8.82;;
21955;SDS011;11142;49.930;8.606;2024-03-22T08:32:26;15.15;;;8.75;;
21955;SDS011;11142;49.930;8.606;2024-03-22T08:34:53;13.73;;;7.85;;
21955;SDS011;11142;49.930;8.606;2024-03-22T08:37:19;14.60;;;7.70;;
21955;SDS011;11142;49.930;8.606;2024-03-22T08:39:46;13.30;;;7.57;;
21955;SDS011;11142;49.930;8.606;2024-03-22T08:42:14;15.75;;;8.77;;
21955;SDS011;11142;49.930;8.606;2024-03-22T08:44:41;13.48;;;7.50;;
21955;SDS011;11142;49.930;8.606;2024-03-22T08:47:07;13.27;;;7.03;;
21955;SDS011;11142;49.930;8.606;2024-03-22T08:49:34;14.30;;;7.28;;
21955;SDS011;11142;49.930;8.606;2024-03-22T08:52:01;13.02;;;6.43;;
21955;SDS011;11142;49.930;8.606;2024-03-22T08:54:29;11.90;;;6.45;;
21955;SDS011;11142;49.930;8.606;2024-03-22T08:56:55;12.23;;;6.93;;
21955;SDS011;11142;49.930;8.606;2024-03-22T08:59:24;11.60;;;6.55;;
21955;SDS011;11142;49.930;8.606;2024-03-22T09:01:50;16.10;;;6.82;;
21955;SDS011;11142;49.930;8.606;2024-03-22T09:04:17;13.75;;;6.45;;
21955;SDS011;11142;49.930;8.606;2024-03-22T09:06:43;12.52;;;6.57;;
21955;SDS011;11142;49.930;8.606;2024-03-22T09:09:11;11.02;;;7.00;;
21955;SDS011;11142;49.930;8.606;2024-03-22T09:11:38;11.90;;;6.25;;
21955;SDS011;11142;49.930;8.606;2024-03-22T09:14:05;11.35;;;6.05;;
21955;SDS011;11142;49.930;8.606;2024-03-22T09:16:34;11.30;;;5.72;;
21955;SDS011;11142;49.930;8.606;2024-03-22T09:19:00;11.07;;;5.85;;
21955;SDS011;11142;49.930;8.606;2024-03-22T09:21:27;10.77;;;5.90;;
21955;SDS011;11142;49.930;8.606;2024-03-22T09:23:53;12.43;;;6.25;;
21955;SDS011;11142;49.930;8.606;2024-03-22T09:26:20;9.02;;;5.28;;
21955;SDS011;11142;49.930;8.606;2024-03-22T09:28:46;8.77;;;5.10;;
21955;SDS011;11142;49.930;8.606;2024-03-22T09:31:16;8.77;;;5.28;;
21955;SDS011;11142;49.930;8.606;2024-03-22T09:33:45;9.23;;;5.60;;
21955;SDS011;11142;49.930;8.606;2024-03-22T09:36:12;9.05;;;5.93;;
21955;SDS011;11142;49.930;8.606;2024-03-22T09:38:39;9.18;;;6.07;;
21955;SDS011;11142;49.930;8.606;2024-03-22T09:41:07;10.32;;;6.00;;
21955;SDS011;11142;49.930;8.606;2024-03-22T09:43:36;10.20;;;5.30;;
21955;SDS011;11142;49.930;8.606;2024-03-22T09:46:04;9.70;;;5.43;;
21955;SDS011;11142;49.930;8.606;2024-03-22T09:48:31;10.65;;;6.35;;
21955;SDS011;11142;49.930;8.606;2024-03-22T09:51:02;15.52;;;6.18;;
21955;SDS011;11142;49.930;8.606;2024-03-22T09:53:29;9.63;;;6.25;;
21955;SDS011;11142;49.930;8.606;2024-03-22T09:55:57;13.75;;;6.88;;
21955;SDS011;11142;49.930;8.606;2024-03-22T09:58:27;14.40;;;7.30;;
21955;SDS011;11142;49.930;8.606;2024-03-22T10:00:53;10.13;;;6.93;;
21955;SDS011;11142;49.930;8.606;2024-03-22T10:03:26;10.57;;;6.57;;
21955;SDS011;11142;49.930;8.606;2024-03-22T10:05:52;14.63;;;7.28;;
21955;SDS011;11142;49.930;8.606;2024-03-22T10:08:20;11.50;;;6.45;;
21955;SDS011;11142;49.930;8.606;2024-03-22T10:10:47;12.30;;;5.75;;
21955;SDS011;11142;49.930;8.606;2024-03-22T10:13:15;10.00;;;5.38;;
21955;SDS011;11142;49.930;8.606;2024-03-22T10:15:41;17.38;;;5.65;;
21955;SDS011;11142;49.930;8.606;2024-03-22T10:18:09;7.22;;;4.53;;
21955;SDS011;11142;49.930;8.606;2024-03-22T10:20:37;9.88;;;5.13;;
21955;SDS011;11142;49.930;8.606;2024-03-22T10:23:04;10.10;;;5.32;;
21955;SDS011;11142;49.930;8.606;2024-03-22T10:25:31;15.27;;;5.18;;
21955;SDS011;11142;49.930;8.606;2024-03-22T10:28:00;14.60;;;5.68;;
21955;SDS011;11142;49.930;8.606;2024-03-22T10:30:26;8.68;;;4.88;;
21955;SDS011;11142;49.930;8.606;2024-03-22T10:32:56;9.70;;;5.93;;
21955;SDS011;11142;49.930;8.606;2024-03-22T10:35:24;91.13;;;42.70;;
21955;SDS011;11142;49.930;8.606;2024-03-22T10:37:52;12.68;;;6.95;;
21955;SDS011;11142;49.930;8.606;2024-03-22T10:40:19;9.70;;;5.30;;
21955;SDS011;11142;49.930;8.606;2024-03-22T10:42:52;11.05;;;5.38;;
21955;SDS011;11142;49.930;8.606;2024-03-22T10:45:18;9.50;;;5.38;;
21955;SDS011;11142;49.930;8.606;2024-03-22T10:47:47;10.75;;;4.88;;
21955;SDS011;11142;49.930;8.606;2024-03-22T10:50:16;11.63;;;5.43;;
21955;SDS011;11142;49.930;8.606;2024-03-22T10:52:47;7.68;;;5.45;;
21955;SDS011;11142;49.930;8.606;2024-03-22T10:55:19;10.60;;;5.50;;
21955;SDS011;11142;49.930;8.606;2024-03-22T10:57:54;9.18;;;5.28;;
21955;SDS011;11142;49.930;8.606;2024-03-22T11:00:27;10.32;;;5.60;;
21955;SDS011;11142;49.930;8.606;2024-03-22T11:02:55;11.32;;;6.25;;
21955;SDS011;11142;49.930;8.606;2024-03-22T11:05:22;7.70;;;5.38;;
21955;SDS011;11142;49.930;8.606;2024-03-22T11:07:58;10.52;;;6.05;;
21955;SDS011;11142;49.930;8.606;2024-03-22T11:10:25;12.57;;;6.03;;
21955;SDS011;11142;49.930;8.606;2024-03-22T11:13:01;12.57;;;6.45;;
21955;SDS011;11142;49.930;8.606;2024-03-22T11:15:29;13.65;;;5.75;;
21955;SDS011;11142;49.930;8.606;2024-03-22T11:17:58;9.77;;;5.63;;
21955;SDS011;11142;49.930;8.606;2024-03-22T11:20:27;10.48;;;6.03;;
21955;SDS011;11142;49.930;8.606;2024-03-22T11:22:56;12.25;;;6.25;;
21955;SDS011;11142;49.930;8.606;2024-03-22T11:25:24;10.35;;;5.82;;
21955;SDS011;11142;49.930;8.606;2024-03-22T11:27:51;10.48;;;6.03;;
21955;SDS011;11142;49.930;8.606;2024-03-22T11:30:21;12.35;;;5.60;;
21955;SDS011;11142;49.930;8.606;2024-03-22T11:32:50;12.88;;;5.72;;
21955;SDS011;11142;49.930;8.606;2024-03-22T11:35:17;8.25;;;5.10;;
21955;SDS011;11142;49.930;8.606;2024-03-22T11:37:44;10.88;;;5.43;;
21955;SDS011;11142;49.930;8.606;2024-03-22T11:40:11;10.63;;;5.47;;
21955;SDS011;11142;49.930;8.606;2024-03-22T11:42:39;8.43;;;5.45;;
21955;SDS011;11142;49.930;8.606;2024-03-22T11:45:08;8.27;;;5.07;;
21955;SDS011;11142;49.930;8.606;2024-03-22T11:47:43;8.83;;;5.13;;
21955;SDS011;11142;49.930;8.606;2024-03-22T11:50:12;10.25;;;5.28;;
21955;SDS011;11142;49.930;8.606;2024-03-22T11:52:40;9.23;;;5.28;;
21955;SDS011;11142;49.930;8.606;2024-03-22T11:55:07;14.18;;;5.30;;
21955;SDS011;11142;49.930;8.606;2024-03-22T11:57:35;9.27;;;5.65;;
21955;SDS011;11142;49.930;8.606;2024-03-22T12:00:07;9.23;;;5.03;;
21955;SDS011;11142;49.930;8.606;2024-03-22T12:02:41;9.25;;;5.47;;
21955;SDS011;11142;49.930;8.606;2024-03-22T12:05:08;9.27;;;5.00;;
21955;SDS011;11142;49.930;8.606;2024-03-22T12:07:36;11.52;;;5.30;;
21955;SDS011;11142;49.930;8.606;2024-03-22T12:10:03;8.55;;;5.90;;
21955;SDS011;11142;49.930;8.606;2024-03-22T12:12:30;8.70;;;5.00;;
21955;SDS011;11142;49.930;8.606;2024-03-22T12:14:57;16.30;;;5.88;;
21955;SDS011;11142;49.930;8.606;2024-03-22T12:17:24;62.97;;;8.13;;
21955;SDS011;11142;49.930;8.606;2024-03-22T12:19:55;23.70;;;7.45;;
21955;SDS011;11142;49.930;8.606;2024-03-22T12:22:21;14.38;;;5.93;;
21955;SDS011;11142;49.930;8.606;2024-03-22T12:24:51;13.98;;;6.22;;
21955;SDS011;11142;49.930;8.606;2024-03-22T12:27:17;14.27;;;6.22;;
21955;SDS011;11142;49.930;8.606;2024-03-22T12:29:44;17.92;;;6.80;;
21955;SDS011;11142;49.930;8.606;2024-03-22T12:32:10;13.02;;;5.72;;
21955;SDS011;11142;49.930;8.606;2024-03-22T12:34:38;18.30;;;5.10;;
21955;SDS011;11142;49.930;8.606;2024-03-22T12:37:09;22.88;;;6.53;;
21955;SDS011;11142;49.930;8.606;2024-03-22T12:39:36;20.65;;;6.88;;
21955;SDS011;11142;49.930;8.606;2024-03-22T12:42:02;13.75;;;5.43;;
21955;SDS011;11142;49.930;8.606;2024-03-22T12:44:31;8.13;;;5.80;;
21955;SDS011;11142;49.930;8.606;2024-03-22T12:46:57;10.85;;;5.60;;
21955;SDS011;11142;49.930;8.606;2024-03-22T12:49:24;13.38;;;6.47;;
21955;SDS011;11142;49.930;8.606;2024-03-22T12:51:52;9.98;;;5.97;;
21955;SDS011;11142;49.930;8.606;2024-03-22T12:54:20;14.07;;;5.97;;
21955;SDS011;11142;49.930;8.606;2024-03-22T12:56:47;16.13;;;6.60;;
21955;SDS011;11142;49.930;8.606;2024-03-22T12:59:15;13.55;;;6.90;;
21955;SDS011;11142;49.930;8.606;2024-03-22T13:01:42;9.55;;;5.53;;
21955;SDS011;11142;49.930;8.606;2024-03-22T13:04:10;11.98;;;6.28;;
21955;SDS011;11142;49.930;8.606;2024-03-22T13:06:38;10.45;;;5.45;;
21955;SDS011;11142;49.930;8.606;2024-03-22T13:09:05;9.50;;;5.72;;
21955;SDS011;11142;49.930;8.606;2024-03-22T13:11:38;14.93;;;6.10;;
21955;SDS011;11142;49.930;8.606;2024-03-22T13:14:06;21.15;;;9.02;;
21955;SDS011;11142;49.930;8.606;2024-03-22T13:16:32;16.92;;;6.45;;
21955;SDS011;11142;49.930;8.606;2024-03-22T13:18:59;13.48;;;6.30;;
21955;SDS011;11142;49.930;8.606;2024-03-22T13:21:25;18.90;;;6.85;;
21955;SDS011;11142;49.930;8.606;2024-03-22T13:23:53;14.60;;;7.43;;
21955;SDS011;11142;49.930;8.606;2024-03-22T13:26:21;14.10;;;7.00;;
21955;SDS011;11142;49.930;8.606;2024-03-22T13:28:52;11.73;;;7.15;;
21955;SDS011;11142;49.930;8.606;2024-03-22T13:31:19;18.10;;;7.05;;
21955;SDS011;11142;49.930;8.606;2024-03-22T13:33:45;14.95;;;7.32;;
21955;SDS011;11142;49.930;8.606;2024-03-22T13:36:13;14.57;;;6.97;;
21955;SDS011;11142;49.930;8.606;2024-03-22T13:38:39;14.43;;;7.60;;
21955;SDS011;11142;49.930;8.606;2024-03-22T13:41:06;13.25;;;7.57;;
21955;SDS011;11142;49.930;8.606;2024-03-22T13:43:34;14.00;;;7.72;;
21955;SDS011;11142;49.930;8.606;2024-03-22T13:46:04;15.38;;;7.10;;
21955;SDS011;11142;49.930;8.606;2024-03-22T13:48:30;12.82;;;8.02;;
21955;SDS011;11142;49.930;8.606;2024-03-22T13:50:57;19.15;;;8.27;;
21955;SDS011;11142;49.930;8.606;2024-03-22T13:53:24;14.65;;;8.25;;
21955;SDS011;11142;49.930;8.606;2024-03-22T13:55:51;23.05;;;8.48;;
21955;SDS011;11142;49.930;8.606;2024-03-22T13:58:20;13.82;;;8.13;;
21955;SDS011;11142;49.930;8.606;2024-03-22T14:00:50;16.30;;;8.93;;
21955;SDS011;11142;49.930;8.606;2024-03-22T14:03:18;17.75;;;9.23;;
21955;SDS011;11142;49.930;8.606;2024-03-22T14:05:48;15.82;;;9.15;;
21955;SDS011;11142;49.930;8.606;2024-03-22T14:08:15;17.35;;;9.05;;
21955;SDS011;11142;49.930;8.606;2024-03-22T14:10:43;22.83;;;10.00;;
21955;SDS011;11142;49.930;8.606;2024-03-22T14:13:14;18.30;;;8.95;;
21955;SDS011;11142;49.930;8.606;2024-03-22T14:15:45;19.40;;;10.45;;
21955;SDS011;11142;49.930;8.606;2024-03-22T14:18:14;19.73;;;9.18;;
21955;SDS011;11142;49.930;8.606;2024-03-22T14:20:46;20.58;;;9.50;;
21955;SDS011;11142;49.930;8.606;2024-03-22T14:23:12;20.30;;;9.30;;
21955;SDS011;11142;49.930;8.606;2024-03-22T14:25:39;17.60;;;10.48;;
21955;SDS011;11142;49.930;8.606;2024-03-22T14:28:06;19.08;;;10.07;;
21955;SDS011;11142;49.930;8.606;2024-03-22T14:30:33;19.42;;;9.30;;
21955;SDS011;11142;49.930;8.606;2024-03-22T14:32:59;25.45;;;11.57;;
21955;SDS011;11142;49.930;8.606;2024-03-22T14:35:27;23.85;;;11.23;;